createdAt,value
2022-12-11T00:17:12.691Z,92.28
2022-12-11T00:46:07.341Z,90.8
2022-12-11T01:14:57.614Z,89.58
2022-12-11T01:43:58.250Z,90.47
2022-12-11T02:12:44.514Z,89.63
2022-12-11T02:41:43.856Z,88.92
2022-12-11T03:10:40.590Z,88.15
2022-12-11T03:39:39.684Z,86.73
2022-12-11T04:08:27.389Z,86.64
2022-12-11T04:37:18.664Z,86.65
2022-12-11T05:06:12.769Z,87.26
2022-12-11T05:35:14.976Z,87.94
2022-12-11T06:04:11.109Z,87.01
2022-12-11T06:33:08.176Z,87.56
2022-12-11T07:02:08.297Z,87.85
2022-12-11T07:31:02.193Z,87.47
2022-12-11T07:59:56.690Z,86.29
2022-12-11T08:28:56.474Z,85.22
2022-12-11T08:57:56.463Z,84.07
2022-12-11T09:26:50.378Z,82.07
2022-12-11T09:55:56.153Z,80.24
2022-12-11T10:25:15.269Z,78.36
2022-12-11T10:53:16.832Z,80.68
2022-12-11T11:22:11.911Z,81.55
2022-12-11T11:51:10.289Z,80.74
2022-12-11T12:20:08.867Z,79.86
2022-12-11T12:49:07.590Z,80.04
2022-12-11T13:18:11.473Z,80.53
2022-12-11T13:46:18.991Z,80.76
2022-12-11T14:15:12.792Z,80.53
2022-12-11T14:43:48.533Z,80.06
2022-12-11T15:12:40.716Z,80.92
2022-12-11T15:41:42.667Z,80.73
2022-12-11T16:10:34.859Z,81.32
2022-12-11T16:39:36.121Z,81
2022-12-11T17:08:38.595Z,80.8
2022-12-11T17:37:48.988Z,79.91
2022-12-11T18:05:59.128Z,80.58
2022-12-11T18:35:04.456Z,80.91
2022-12-11T19:03:24.736Z,81.04
2022-12-11T19:32:17.378Z,81.02
2022-12-11T20:00:43.122Z,80.91
2022-12-11T20:29:41.919Z,81.38
2022-12-11T20:57:58.779Z,80.88
2022-12-11T21:26:41.099Z,80.81
2022-12-11T21:55:04.358Z,80.19
2022-12-11T22:23:56.895Z,79.21
2022-12-11T22:52:10.185Z,78.27
2022-12-11T23:21:11.523Z,79.16
2022-12-11T23:50:12.165Z,80.22
